createdAt,value
2022-07-30T00:05:55.682Z,78.97
2022-07-30T00:15:58.356Z,79.40
2022-07-30T00:26:02.606Z,79.99
2022-07-30T00:36:05.564Z,79.53
2022-07-30T00:46:09.679Z,79.17
2022-07-30T00:56:12.384Z,80.22
2022-07-30T01:06:16.417Z,80.25
2022-07-30T01:16:19.271Z,80.33
2022-07-30T01:26:23.829Z,80.40
2022-07-30T01:36:27.198Z,81.47
2022-07-30T01:46:32.367Z,81.28
2022-07-30T01:56:36.949Z,82.32
2022-07-30T02:06:47.162Z,82.03
2022-07-30T02:16:54.035Z,81.92
2022-07-30T02:27:04.217Z,81.81
2022-07-30T02:37:09.459Z,81.89
2022-07-30T02:47:16.418Z,81.43
2022-07-30T02:57:22.252Z,81.64
2022-07-30T03:07:28.103Z,81.50
2022-07-30T03:17:38.375Z,81.61
2022-07-30T03:27:43.962Z,82.97
2022-07-30T03:37:47.658Z,82.78
2022-07-30T03:47:52.594Z,82.28
2022-07-30T03:57:55.481Z,82.24
2022-07-30T04:07:59.507Z,82.15
2022-07-30T04:18:06.836Z,82.08
2022-07-30T04:28:12.004Z,81.80
2022-07-30T04:38:14.930Z,81.76
2022-07-30T04:48:18.961Z,81.56
2022-07-30T04:58:23.577Z,81.10
2022-07-30T05:08:28.157Z,81.01
2022-07-30T05:18:31.933Z,81.88
2022-07-30T05:28:35.966Z,81.84
2022-07-30T05:38:40.071Z,81.88
2022-07-30T05:48:44.125Z,81.32
2022-07-30T05:58:46.864Z,80.57
2022-07-30T06:08:51.030Z,80.04
2022-07-30T06:18:53.740Z,79.56
2022-07-30T06:28:57.785Z,78.75
2022-07-30T06:39:00.427Z,77.97
2022-07-30T06:49:05.066Z,75.60
2022-07-30T06:59:07.994Z,75.08
2022-07-30T07:09:11.974Z,74.03
2022-07-30T07:19:14.730Z,73.58
2022-07-30T07:29:38.711Z,71.54
2022-07-30T07:39:42.433Z,70.59
2022-07-30T07:49:46.480Z,69.48
2022-07-30T07:59:49.940Z,65.71
2022-07-30T08:09:54.007Z,64.88
2022-07-30T08:19:59.711Z,61.00
2022-07-30T08:30:05.768Z,60.18
2022-07-30T08:40:09.852Z,56.48
2022-07-30T08:50:16.722Z,55.61
2022-07-30T09:00:21.202Z,56.25
2022-07-30T09:10:25.701Z,54.02
2022-07-30T09:20:30.015Z,54.56
2022-07-30T09:30:49.248Z,54.50
2022-07-30T09:40:57.233Z,52.17
2022-07-30T09:51:01.944Z,52.04
2022-07-30T10:01:05.552Z,50.48
2022-07-30T10:11:11.959Z,49.15
2022-07-30T10:21:16.896Z,48.41
2022-07-30T10:31:47.505Z,48.34
2022-07-30T10:41:54.154Z,48.60
2022-07-30T10:51:59.195Z,46.99
2022-07-30T11:02:10.896Z,45.19
2022-07-30T11:12:16.568Z,45.83
2022-07-30T11:22:26.120Z,43.61
2022-07-30T11:32:32.731Z,43.26
2022-07-30T11:42:35.975Z,35.18
2022-07-30T11:52:40.181Z,30.96
2022-07-30T12:02:42.877Z,35.73
2022-07-30T12:12:47.549Z,36.50
2022-07-30T12:22:50.224Z,34.98
2022-07-30T12:32:54.323Z,27.18
2022-07-30T12:42:57.037Z,25.67
2022-07-30T12:53:01.032Z,25.71
2022-07-30T13:03:03.670Z,28.54
2022-07-30T13:13:07.709Z,36.08
2022-07-30T13:23:10.342Z,40.84
2022-07-30T13:33:14.371Z,43.71
2022-07-30T13:43:17.036Z,47.20
2022-07-30T13:53:21.032Z,46.84
2022-07-30T14:03:23.675Z,47.73
2022-07-30T14:13:27.709Z,49.04
2022-07-30T14:23:31.057Z,49.41
2022-07-30T14:33:35.138Z,51.11
2022-07-30T14:43:37.795Z,49.69
2022-07-30T14:53:41.844Z,50.87
2022-07-30T15:03:50.380Z,52.14
2022-07-30T15:13:54.338Z,51.86
2022-07-30T15:23:57.186Z,53.04
2022-07-30T15:34:01.147Z,52.20
2022-07-30T15:44:04.008Z,53.80
2022-07-30T15:54:08.003Z,54.42
2022-07-30T16:04:19.926Z,55.26
2022-07-30T16:14:24.309Z,53.52
2022-07-30T16:24:26.950Z,54.02
2022-07-30T16:34:31.056Z,54.61
2022-07-30T16:44:34.300Z,54.65
2022-07-30T16:54:38.251Z,56.55
2022-07-30T17:04:41.434Z,56.53
2022-07-30T17:14:45.415Z,57.57
2022-07-30T17:24:48.034Z,58.17
2022-07-30T17:34:52.547Z,57.19
2022-07-30T17:44:55.167Z,56.81
2022-07-30T17:54:59.135Z,56.86
2022-07-30T18:05:02.396Z,57.23
2022-07-30T18:15:07.550Z,59.33
2022-07-30T18:25:18.106Z,60.12
2022-07-30T18:35:23.490Z,60.65
2022-07-30T18:45:28.381Z,61.35
2022-07-30T18:55:32.573Z,61.43
2022-07-30T19:05:36.313Z,61.35
2022-07-30T19:15:40.300Z,61.35
2022-07-30T19:25:43.290Z,61.67
2022-07-30T19:35:47.259Z,61.70
2022-07-30T19:45:49.923Z,61.75
2022-07-30T19:55:53.922Z,62.75
2022-07-30T20:05:59.303Z,64.43
2022-07-30T20:16:05.980Z,64.47
2022-07-30T20:26:12.495Z,64.75
2022-07-30T20:36:18.203Z,64.93
2022-07-30T20:46:23.375Z,64.45
2022-07-30T20:56:27.858Z,64.72
2022-07-30T21:06:32.656Z,65.08
2022-07-30T21:16:40.319Z,64.98
2022-07-30T21:26:43.376Z,64.98
2022-07-30T21:36:47.367Z,65.08
2022-07-30T21:46:51.644Z,65.43
2022-07-30T21:56:56.451Z,65.87
2022-07-30T22:07:01.942Z,66.30
2022-07-30T22:17:22.416Z,66.55
2022-07-30T22:27:26.094Z,66.75
2022-07-30T22:37:34.205Z,66.34
2022-07-30T22:47:50.882Z,66.33
2022-07-30T22:57:58.255Z,66.84
2022-07-30T23:08:01.051Z,67.06
2022-07-30T23:18:05.418Z,67.01
2022-07-30T23:28:08.051Z,67.16
2022-07-30T23:38:12.015Z,66.94
2022-07-30T23:48:14.943Z,67.27
2022-07-30T23:58:19.377Z,67.23
